Aérodrome :
LOGIN :

S'inscrire | Disclaimer

   EN    FR    IT 

 










Légende :    VFR   VFR Marginal   IFR   IFR Intensif   IFR Très Intensif
Visi : 
Plafond : 
>= 8 km
>= 3000ft
5 à 8 km
1000 à 3000 ft
1500m à 5 km
500 à 1000 ft
800 à 1500m
200 à 500 ft
< 800m
< 200 ft
Symboles :   Orages  Brouillard  Fortes neiges  Fortes précipitations  Vent > 20 kt
SIGMETs :   Divers  Orages  Givrage  Turbulence  Onde Orograph.  Cendres Volcan.







- Altitude de l'aérodrome : 2302 ft
- Voir les cartes d'approche


LEAB - Albacete

DERNIER METAR :
  • 221800Z 16009KT 120V190 9999 FEW040TCU 22/13 Q1020 NOSIG

METARs EXPIRÉS :
  • 221700Z 17010KT CAVOK 23/12 Q1019 NOSIG
  • 221600Z 16010KT 130V190 CAVOK 25/11 Q1019 NOSIG

TAF TAF LEAB
Valide du 22 à 18h jusqu'au 23 à 03h UTC


221700Z 2218/2303 15010KT CAVOK
PROB30
TEMPO 2221/2303 BKN014
Pas de NOTAMs connus pour ce terrain.
1 SIGMET publié pour la FIR Madrid (LECM) :
 
Orages noyés dans la masse
LECM SIGMET 8 VALID 221800/222000 LEVA
LECM MADRID FIR/UIR EMBD TS FCST WI N4010 W00310 - N4120 W00230 - N41 W001 - N40 W00050 - N4010 W00310 TOP FL360 MOV E 15KT NC=



MET'MAP, la Météo Aéronautique d'un coup d'oeil ! - Copyright ORBIFLY Décembre 2007 - Disclaimer

ORBIFLY MET'MAP TEAM :

Programmation & Développement : Alexandra Zaïnal
Conception & Développement : Baudouin d'Aumeries
Co-Programmation & Développement : Marc-Olivier Méhu
Soutien technique & logistique : Manuel Goepfert

Contact : metmap@orbifly.com




SOURCES & CREDITS :

   NOAA